createdAt,value
2022-10-11T00:01:02.272Z,60.52
2022-10-11T00:03:36.601Z,60.60
2022-10-11T00:06:06.614Z,60.42
2022-10-11T00:08:35.717Z,60.24
2022-10-11T00:11:07.881Z,60.20
2022-10-11T00:13:36.262Z,60.17
2022-10-11T00:16:09.829Z,60.22
2022-10-11T00:18:39.039Z,60.11
2022-10-11T00:21:10.816Z,60.08
2022-10-11T00:23:39.299Z,60.00
2022-10-11T00:26:09.832Z,59.98
2022-10-11T00:28:38.588Z,60.05
2022-10-11T00:31:09.273Z,60.04
2022-10-11T00:33:37.626Z,59.99
2022-10-11T00:36:07.337Z,60.15
2022-10-11T00:38:35.815Z,60.11
2022-10-11T00:41:04.092Z,60.11
2022-10-11T00:43:33.086Z,60.09
2022-10-11T00:46:24.811Z,60.01
2022-10-11T00:49:07.523Z,60.04
2022-10-11T00:51:58.942Z,60.26
2022-10-11T00:54:32.032Z,60.26
2022-10-11T00:57:07.374Z,60.39
2022-10-11T00:59:40.543Z,60.45
2022-10-11T01:02:10.275Z,60.64
2022-10-11T01:04:38.550Z,60.67
2022-10-11T01:07:06.929Z,60.41
2022-10-11T01:09:35.410Z,60.45
2022-10-11T01:12:12.495Z,60.49
2022-10-11T01:14:43.637Z,60.56
2022-10-11T01:17:32.703Z,60.61
2022-10-11T01:20:26.884Z,60.84
2022-10-11T01:23:19.325Z,61.04
2022-10-11T01:26:13.303Z,60.64
2022-10-11T01:28:56.714Z,60.66
2022-10-11T01:31:50.818Z,60.69
2022-10-11T01:34:37.310Z,60.55
2022-10-11T01:37:15.222Z,60.47
2022-10-11T01:40:06.646Z,60.68
2022-10-11T01:42:39.321Z,60.60
2022-10-11T01:45:12.797Z,60.53
2022-10-11T01:47:42.733Z,60.54
2022-10-11T01:50:38.453Z,60.68
2022-10-11T01:53:16.559Z,60.54
2022-10-11T01:55:55.364Z,60.71
2022-10-11T01:58:36.869Z,60.58
2022-10-11T02:01:07.759Z,60.79
2022-10-11T02:04:02.583Z,60.70
2022-10-11T02:06:45.935Z,60.67
2022-10-11T02:09:30.302Z,60.74
2022-10-11T02:12:04.197Z,60.89
2022-10-11T02:14:36.774Z,60.94
2022-10-11T02:17:10.987Z,61.06
2022-10-11T02:19:44.386Z,61.26
2022-10-11T02:22:26.590Z,61.23
2022-10-11T02:24:59.264Z,61.06
2022-10-11T02:27:33.583Z,61.05
2022-10-11T02:30:05.544Z,61.09
2022-10-11T02:32:35.972Z,61.13
2022-10-11T02:35:04.806Z,61.23
2022-10-11T02:37:47.782Z,61.17
2022-10-11T02:40:24.868Z,61.18
2022-10-11T02:43:12.802Z,61.20
2022-10-11T02:45:55.106Z,61.04
2022-10-11T02:48:25.402Z,61.07
2022-10-11T02:50:54.526Z,61.14
2022-10-11T02:53:24.130Z,61.15
2022-10-11T02:55:53.946Z,61.29
2022-10-11T02:58:23.450Z,61.31
2022-10-11T03:00:51.727Z,61.06
2022-10-11T03:03:19.803Z,61.14
2022-10-11T03:05:47.869Z,61.08
2022-10-11T03:08:17.754Z,61.19
2022-10-11T03:10:45.753Z,61.26
2022-10-11T03:13:17.878Z,61.28
2022-10-11T03:16:02.410Z,61.47
2022-10-11T03:18:31.895Z,61.35
2022-10-11T03:21:00.177Z,61.38
2022-10-11T03:23:28.432Z,61.47
2022-10-11T03:25:56.606Z,61.58
2022-10-11T03:28:24.786Z,61.58
2022-10-11T03:30:53.362Z,61.55
2022-10-11T03:33:21.435Z,61.62
2022-10-11T03:35:50.428Z,61.69
2022-10-11T03:38:22.226Z,61.69
2022-10-11T03:40:50.153Z,61.85
2022-10-11T03:43:18.222Z,61.82
2022-10-11T03:45:46.504Z,61.86
2022-10-11T03:48:15.061Z,61.97
2022-10-11T03:50:43.055Z,61.94
2022-10-11T03:53:11.713Z,62.12
2022-10-11T03:55:40.651Z,62.04
2022-10-11T03:58:09.384Z,62.24
2022-10-11T04:00:37.903Z,62.26
2022-10-11T04:03:05.970Z,62.19
2022-10-11T04:05:33.948Z,62.27
2022-10-11T04:08:02.216Z,62.29
2022-10-11T04:10:31.721Z,62.41
2022-10-11T04:12:59.997Z,62.35
2022-10-11T04:15:27.966Z,62.42
2022-10-11T04:17:55.939Z,62.51
2022-10-11T04:20:23.904Z,62.43
2022-10-11T04:22:51.977Z,62.54
2022-10-11T04:25:20.252Z,62.54
2022-10-11T04:27:48.834Z,62.60
2022-10-11T04:30:17.522Z,62.75
2022-10-11T04:32:45.694Z,62.83
2022-10-11T04:35:14.259Z,62.94
2022-10-11T04:37:42.245Z,62.91
2022-10-11T04:40:11.406Z,63.01
2022-10-11T04:42:39.517Z,63.01
2022-10-11T04:45:09.537Z,63.06
2022-10-11T04:47:38.218Z,63.16
2022-10-11T04:50:06.805Z,63.19
2022-10-11T04:52:34.873Z,63.30
2022-10-11T04:55:02.842Z,63.44
2022-10-11T04:57:30.810Z,63.36
2022-10-11T04:59:58.779Z,63.26
2022-10-11T05:02:26.884Z,63.50
2022-10-11T05:04:55.126Z,63.49
2022-10-11T05:07:23.095Z,63.53
2022-10-11T05:09:51.064Z,63.66
2022-10-11T05:12:19.034Z,63.80
2022-10-11T05:14:47.004Z,63.78
2022-10-11T05:17:15.073Z,63.85
2022-10-11T05:19:43.043Z,63.85
2022-10-11T05:22:11.114Z,63.94
2022-10-11T05:24:39.209Z,64.12
2022-10-11T05:27:07.359Z,64.05
2022-10-11T05:29:35.431Z,64.17
2022-10-11T05:32:03.604Z,64.26
2022-10-11T05:34:31.678Z,64.34
2022-10-11T05:36:59.850Z,64.49
2022-10-11T05:39:27.819Z,64.34
2022-10-11T05:41:55.890Z,64.47
2022-10-11T05:44:23.962Z,64.56
2022-10-11T05:46:52.035Z,64.77
2022-10-11T05:49:20.103Z,64.83
2022-10-11T05:51:48.073Z,64.76
2022-10-11T05:54:16.050Z,64.73
2022-10-11T05:56:44.010Z,64.75
2022-10-11T05:59:12.082Z,65.06
2022-10-11T06:01:40.577Z,65.01
2022-10-11T06:04:08.739Z,65.17
2022-10-11T06:06:36.705Z,65.24
2022-10-11T06:09:04.674Z,65.35
2022-10-11T06:11:32.745Z,65.60
2022-10-11T06:14:00.816Z,65.74
2022-10-11T06:16:28.887Z,65.74
2022-10-11T06:18:57.891Z,65.82
2022-10-11T06:21:26.156Z,66.16
2022-10-11T06:24:00.781Z,66.35
2022-10-11T06:26:30.039Z,66.47
2022-10-11T06:28:58.854Z,66.68
2022-10-11T06:31:27.556Z,66.74
2022-10-11T06:33:55.525Z,66.69
2022-10-11T06:36:23.597Z,67.05
2022-10-11T06:38:55.933Z,67.10
2022-10-11T06:41:29.264Z,67.25
2022-10-11T06:43:57.947Z,67.13
2022-10-11T06:46:28.169Z,67.25
2022-10-11T06:48:56.687Z,67.50
2022-10-11T06:51:26.032Z,67.56
2022-10-11T06:53:56.906Z,67.87
2022-10-11T06:56:27.335Z,67.88
2022-10-11T06:58:56.820Z,68.11
2022-10-11T07:01:25.558Z,68.27
2022-10-11T07:03:55.830Z,68.56
2022-10-11T07:06:27.283Z,68.46
2022-10-11T07:08:55.737Z,68.36
2022-10-11T07:11:26.805Z,68.78
2022-10-11T07:14:00.507Z,68.79
2022-10-11T07:16:29.194Z,68.80
2022-10-11T07:19:00.773Z,69.10
2022-10-11T07:21:31.177Z,69.04
2022-10-11T07:24:00.184Z,69.19
2022-10-11T07:26:33.817Z,69.23
2022-10-11T07:29:07.162Z,69.28
2022-10-11T07:31:37.521Z,68.96
2022-10-11T07:34:05.785Z,69.13
2022-10-11T07:36:34.243Z,68.99
2022-10-11T07:39:05.487Z,69.15
2022-10-11T07:41:33.871Z,69.12
2022-10-11T07:44:01.938Z,69.09
2022-10-11T07:46:30.119Z,69.17
2022-10-11T07:48:58.593Z,69.10
2022-10-11T07:51:26.975Z,69.05
2022-10-11T07:53:56.874Z,69.17
2022-10-11T07:56:27.517Z,69.06
2022-10-11T07:58:57.989Z,68.76
2022-10-11T08:01:27.951Z,69.00
2022-10-11T08:03:59.825Z,68.94
2022-10-11T08:06:31.837Z,68.99
2022-10-11T08:09:00.949Z,69.11
2022-10-11T08:11:32.536Z,69.20
2022-10-11T08:14:01.199Z,69.07
2022-10-11T08:16:29.206Z,68.94
2022-10-11T08:18:57.343Z,69.04
2022-10-11T08:21:26.974Z,69.01
2022-10-11T08:23:55.256Z,69.10
2022-10-11T08:26:24.926Z,69.11
2022-10-11T08:28:53.071Z,69.26
2022-10-11T08:31:21.609Z,69.17
2022-10-11T08:33:50.193Z,69.17
2022-10-11T08:36:18.469Z,69.00
2022-10-11T08:38:46.551Z,68.90
2022-10-11T08:41:17.377Z,69.07
2022-10-11T08:43:51.285Z,68.92
2022-10-11T08:46:24.477Z,69.01
2022-10-11T08:48:52.549Z,68.87
2022-10-11T08:51:43.248Z,69.06
2022-10-11T08:54:30.162Z,69.06
2022-10-11T08:56:58.644Z,69.49
2022-10-11T08:59:37.779Z,69.46
2022-10-11T09:02:31.765Z,69.30
2022-10-11T09:05:14.569Z,69.44
2022-10-11T09:07:42.460Z,69.17
2022-10-11T09:10:31.604Z,69.41
2022-10-11T09:13:31.626Z,69.49
2022-10-11T09:16:18.433Z,69.63
2022-10-11T09:19:08.040Z,69.55
2022-10-11T09:22:14.991Z,69.80
2022-10-11T09:24:48.902Z,69.92
2022-10-11T09:27:33.036Z,69.82
2022-10-11T09:30:14.606Z,70.06
2022-10-11T09:32:47.932Z,69.97
2022-10-11T09:35:19.177Z,70.04
2022-10-11T09:38:10.469Z,70.08
2022-10-11T09:40:53.514Z,70.10
2022-10-11T09:43:21.893Z,70.07
2022-10-11T09:45:49.977Z,70.24
2022-10-11T09:48:25.408Z,70.26
2022-10-11T09:50:59.010Z,70.10
2022-10-11T09:53:54.011Z,69.93
2022-10-11T09:56:24.239Z,69.82
2022-10-11T09:59:08.961Z,70.00
2022-10-11T10:01:37.226Z,69.93
2022-10-11T10:04:11.692Z,70.04
2022-10-11T10:06:41.197Z,69.81
2022-10-11T10:09:33.235Z,69.71
2022-10-11T10:12:11.132Z,69.76
2022-10-11T10:14:41.238Z,69.88
2022-10-11T10:17:17.662Z,69.42
2022-10-11T10:19:56.445Z,69.55
2022-10-11T10:22:29.839Z,69.67
2022-10-11T10:25:01.287Z,69.72
2022-10-11T10:27:30.796Z,69.78
2022-10-11T10:30:16.312Z,69.90
2022-10-11T10:33:07.179Z,70.02
2022-10-11T10:35:47.333Z,70.11
2022-10-11T10:38:51.292Z,70.13
2022-10-11T10:41:20.515Z,69.98
2022-10-11T10:44:01.007Z,70.15
2022-10-11T10:46:41.264Z,70.43
2022-10-11T10:49:51.998Z,70.42
2022-10-11T10:52:40.328Z,70.44
2022-10-11T10:55:43.373Z,70.51
2022-10-11T10:58:23.734Z,70.53
2022-10-11T11:00:58.778Z,70.57
2022-10-11T11:03:38.818Z,70.24
2022-10-11T11:06:13.035Z,70.45
2022-10-11T11:09:05.475Z,70.43
2022-10-11T11:11:39.490Z,70.51
2022-10-11T11:14:23.635Z,70.45
2022-10-11T11:16:54.472Z,70.24
2022-10-11T11:19:41.180Z,70.25
2022-10-11T11:22:18.468Z,70.22
2022-10-11T11:25:01.693Z,70.25
2022-10-11T11:27:58.343Z,70.09
2022-10-11T11:30:48.220Z,70.25
2022-10-11T11:33:36.873Z,70.35
2022-10-11T11:36:14.343Z,70.43
2022-10-11T11:38:47.145Z,70.28
2022-10-11T11:41:24.534Z,70.13
2022-10-11T11:44:02.646Z,70.19
2022-10-11T11:46:57.853Z,70.23
2022-10-11T11:49:38.462Z,69.93
2022-10-11T11:52:12.014Z,69.77
2022-10-11T11:54:45.411Z,69.97
2022-10-11T11:57:20.752Z,70.18
2022-10-11T11:59:57.971Z,70.26
2022-10-11T12:02:38.296Z,70.16
2022-10-11T12:05:16.801Z,70.19
2022-10-11T12:08:14.991Z,70.00
2022-10-11T12:10:49.001Z,70.10
2022-10-11T12:13:21.372Z,70.12
2022-10-11T12:16:09.924Z,70.12
2022-10-11T12:18:57.779Z,69.85
2022-10-11T12:21:25.832Z,69.68
2022-10-11T12:24:10.593Z,69.72
2022-10-11T12:26:46.141Z,69.80
2022-10-11T12:29:17.385Z,69.71
2022-10-11T12:31:48.630Z,69.77
2022-10-11T12:34:38.168Z,69.67
2022-10-11T12:37:18.362Z,69.59
2022-10-11T12:39:52.066Z,69.55
2022-10-11T12:42:36.603Z,69.38
2022-10-11T12:45:13.910Z,69.21
2022-10-11T12:48:02.369Z,69.45
2022-10-11T12:50:51.628Z,69.40
2022-10-11T12:54:21.549Z,69.43
2022-10-11T12:57:12.088Z,69.42
2022-10-11T12:59:45.544Z,69.45
2022-10-11T13:02:38.913Z,69.44
2022-10-11T13:05:19.166Z,69.45
2022-10-11T13:07:47.646Z,69.25
2022-10-11T13:10:54.016Z,68.77
2022-10-11T13:13:25.056Z,68.48
2022-10-11T13:15:55.997Z,68.60
2022-10-11T13:18:26.319Z,68.65
2022-10-11T13:20:54.902Z,68.61
2022-10-11T13:23:24.407Z,68.61
2022-10-11T13:25:53.626Z,68.80
2022-10-11T13:28:22.827Z,68.73
2022-10-11T13:30:54.776Z,68.31
2022-10-11T13:33:35.741Z,67.74
2022-10-11T13:36:06.932Z,67.86
2022-10-11T13:38:37.389Z,68.12
2022-10-11T13:41:08.634Z,68.24
2022-10-11T13:43:37.547Z,68.10
2022-10-11T13:46:06.384Z,68.04
2022-10-11T13:48:41.164Z,68.01
2022-10-11T13:51:30.433Z,67.85
2022-10-11T13:54:01.453Z,67.94
2022-10-11T13:56:45.929Z,67.69
2022-10-11T13:59:23.835Z,67.56
2022-10-11T14:02:00.281Z,67.49
2022-10-11T14:04:38.611Z,67.32
2022-10-11T14:07:07.103Z,67.13
2022-10-11T14:09:38.851Z,67.09
2022-10-11T14:12:25.353Z,67.17
2022-10-11T14:14:53.732Z,66.88
2022-10-11T14:17:33.170Z,66.91
2022-10-11T14:20:15.878Z,66.96
2022-10-11T14:22:44.594Z,66.59
2022-10-11T14:25:13.378Z,66.01
2022-10-11T14:27:42.869Z,65.31
2022-10-11T14:30:28.026Z,64.36
2022-10-11T14:32:59.896Z,65.14
2022-10-11T14:35:35.041Z,65.33
2022-10-11T14:38:03.104Z,65.48
2022-10-11T14:40:32.156Z,65.81
2022-10-11T14:43:00.168Z,65.91
2022-10-11T14:45:29.064Z,66.12
2022-10-11T14:47:57.362Z,66.54
2022-10-11T14:50:37.798Z,66.55
2022-10-11T14:53:08.058Z,66.31
2022-10-11T14:55:38.343Z,66.08
2022-10-11T14:58:08.154Z,66.16
2022-10-11T15:00:36.914Z,66.23
2022-10-11T15:03:07.372Z,66.17
2022-10-11T15:05:36.504Z,66.32
2022-10-11T15:08:07.192Z,66.30
2022-10-11T15:10:39.579Z,66.19
2022-10-11T15:13:09.102Z,66.22
2022-10-11T15:15:41.054Z,66.16
2022-10-11T15:18:13.307Z,66.10
2022-10-11T15:20:44.963Z,66.16
2022-10-11T15:23:13.035Z,66.03
2022-10-11T15:25:42.303Z,66.13
2022-10-11T15:28:28.472Z,66.19
2022-10-11T15:30:56.909Z,66.25
2022-10-11T15:33:25.799Z,66.68
2022-10-11T15:35:53.872Z,66.31
2022-10-11T15:38:24.400Z,66.43
2022-10-11T15:40:53.493Z,66.36
2022-10-11T15:43:24.773Z,66.77
2022-10-11T15:45:55.168Z,66.73
2022-10-11T15:48:26.507Z,66.97
2022-10-11T15:50:55.101Z,67.05
2022-10-11T15:53:28.601Z,67.01
2022-10-11T15:56:06.635Z,67.14
2022-10-11T15:58:40.508Z,67.26
2022-10-11T16:01:19.742Z,67.31
2022-10-11T16:03:49.413Z,67.26
2022-10-11T16:06:18.966Z,67.26
2022-10-11T16:08:48.009Z,67.66
2022-10-11T16:11:16.317Z,67.74
2022-10-11T16:13:45.324Z,67.77
2022-10-11T16:16:13.495Z,67.86
2022-10-11T16:18:41.673Z,67.96
2022-10-11T16:21:12.198Z,67.87
2022-10-11T16:23:40.168Z,68.02
2022-10-11T16:26:12.216Z,68.07
2022-10-11T16:28:42.200Z,68.23
2022-10-11T16:31:16.874Z,68.41
2022-10-11T16:33:48.066Z,68.53
2022-10-11T16:36:33.232Z,68.55
2022-10-11T16:39:05.050Z,68.46
2022-10-11T16:41:33.124Z,68.67
2022-10-11T16:44:01.192Z,68.68
2022-10-11T16:46:29.161Z,68.49
2022-10-11T16:48:57.543Z,68.63
2022-10-11T16:51:25.612Z,68.52
2022-10-11T16:53:53.594Z,68.50
2022-10-11T16:56:24.313Z,68.82
2022-10-11T16:58:54.296Z,68.65
2022-10-11T17:01:22.853Z,68.71
2022-10-11T17:03:52.010Z,68.73
2022-10-11T17:06:20.483Z,68.81
2022-10-11T17:08:48.805Z,68.96
2022-10-11T17:11:17.869Z,68.94
2022-10-11T17:13:46.246Z,69.06
2022-10-11T17:16:14.723Z,69.03
2022-10-11T17:18:43.715Z,68.99
2022-10-11T17:21:14.345Z,68.92
2022-10-11T17:23:43.191Z,68.84
2022-10-11T17:26:16.341Z,69.07
2022-10-11T17:28:44.776Z,68.59
2022-10-11T17:31:13.287Z,68.78
2022-10-11T17:33:41.358Z,68.87
2022-10-11T17:36:25.185Z,69.02
2022-10-11T17:38:53.172Z,69.00
2022-10-11T17:41:21.241Z,68.87
2022-10-11T17:43:49.416Z,68.85
2022-10-11T17:46:18.259Z,68.89
2022-10-11T17:48:46.271Z,68.87
2022-10-11T17:51:19.464Z,68.93
2022-10-11T17:53:50.580Z,68.80
2022-10-11T17:56:27.474Z,68.87
2022-10-11T17:58:59.652Z,68.86
2022-10-11T18:01:29.222Z,69.05
2022-10-11T18:04:03.240Z,69.12
2022-10-11T18:06:34.517Z,69.17
2022-10-11T18:09:03.259Z,69.11
2022-10-11T18:11:31.478Z,69.06
2022-10-11T18:13:59.754Z,69.12
2022-10-11T18:16:30.386Z,69.19
2022-10-11T18:18:59.566Z,69.02
2022-10-11T18:21:34.028Z,69.12
2022-10-11T18:24:05.998Z,69.14
2022-10-11T18:26:34.754Z,69.09
2022-10-11T18:29:03.450Z,69.23
2022-10-11T18:31:35.317Z,69.36
2022-10-11T18:34:05.424Z,69.21
2022-10-11T18:36:33.490Z,69.04
2022-10-11T18:39:04.439Z,69.08
2022-10-11T18:41:34.140Z,69.15
2022-10-11T18:44:07.945Z,69.06
2022-10-11T18:46:36.561Z,68.92
2022-10-11T18:49:04.702Z,68.81
2022-10-11T18:51:36.465Z,68.72
2022-10-11T18:54:05.863Z,68.85
2022-10-11T18:56:36.698Z,68.78
2022-10-11T18:59:06.204Z,68.78
2022-10-11T19:01:38.454Z,68.67
2022-10-11T19:04:09.323Z,68.79
2022-10-11T19:06:43.524Z,68.69
2022-10-11T19:09:14.873Z,68.56
2022-10-11T19:11:43.149Z,68.59
2022-10-11T19:14:16.237Z,68.64
2022-10-11T19:16:49.738Z,68.76
2022-10-11T19:19:24.006Z,68.52
2022-10-11T19:21:52.841Z,68.56
2022-10-11T19:24:23.171Z,68.49
2022-10-11T19:26:53.198Z,68.71
2022-10-11T19:29:24.429Z,68.65
2022-10-11T19:31:58.234Z,68.54
2022-10-11T19:34:28.040Z,68.54
2022-10-11T19:36:56.734Z,68.55
2022-10-11T19:39:25.700Z,68.52
2022-10-11T19:41:54.086Z,68.60
2022-10-11T19:44:22.074Z,68.52
2022-10-11T19:46:52.309Z,68.45
2022-10-11T19:49:25.335Z,68.27
2022-10-11T19:51:55.620Z,68.54
2022-10-11T19:54:24.452Z,68.63
2022-10-11T19:56:52.834Z,68.37
2022-10-11T19:59:21.356Z,68.60
2022-10-11T20:01:52.796Z,68.58
2022-10-11T20:04:47.495Z,68.48
2022-10-11T20:07:10.862Z,68.69
2022-10-11T20:09:39.241Z,68.59
2022-10-11T20:12:08.228Z,68.62
2022-10-11T20:14:36.309Z,68.61
2022-10-11T20:17:04.483Z,68.65
2022-10-11T20:19:32.653Z,68.51
2022-10-11T20:22:01.963Z,68.45
2022-10-11T20:24:33.696Z,68.75
2022-10-11T20:27:04.449Z,68.55
2022-10-11T20:29:32.928Z,68.51
2022-10-11T20:32:01.111Z,68.61
2022-10-11T20:34:29.274Z,68.80
2022-10-11T20:36:57.447Z,68.69
2022-10-11T20:39:25.621Z,68.90
2022-10-11T20:41:53.693Z,68.81
2022-10-11T20:44:21.767Z,68.82
2022-10-11T20:46:49.936Z,68.71
2022-10-11T20:49:20.164Z,68.53
2022-10-11T20:51:48.989Z,68.77
2022-10-11T20:54:17.530Z,68.84
2022-10-11T20:56:46.216Z,68.80
2022-10-11T20:59:14.390Z,68.82
2022-10-11T21:01:42.902Z,68.90
2022-10-11T21:04:20.938Z,68.71
2022-10-11T21:06:49.359Z,68.95
2022-10-11T21:09:17.650Z,69.09
2022-10-11T21:11:46.429Z,69.22
2022-10-11T21:14:14.597Z,69.01
2022-10-11T21:16:42.562Z,68.83
2022-10-11T21:19:14.702Z,69.00
2022-10-11T21:21:46.441Z,69.11
2022-10-11T21:24:16.606Z,69.08
2022-10-11T21:26:44.684Z,68.74
2022-10-11T21:29:12.752Z,68.95
2022-10-11T21:31:41.044Z,68.91
2022-10-11T21:34:09.056Z,68.82
2022-10-11T21:36:37.066Z,68.77
2022-10-11T21:39:05.141Z,68.76
2022-10-11T21:41:34.234Z,68.84
2022-10-11T21:44:02.713Z,68.88
2022-10-11T21:47:01.282Z,68.77
2022-10-11T21:49:20.772Z,68.74
2022-10-11T21:51:48.738Z,68.95
2022-10-11T21:54:17.410Z,68.95
2022-10-11T21:56:45.605Z,68.94
2022-10-11T21:59:13.874Z,69.14
2022-10-11T22:01:43.402Z,69.06
2022-10-11T22:04:11.760Z,68.93
2022-10-11T22:06:40.703Z,68.82
2022-10-11T22:09:09.494Z,68.87
2022-10-11T22:11:38.023Z,68.90
2022-10-11T22:14:07.019Z,68.56
2022-10-11T22:16:35.596Z,68.92
2022-10-11T22:19:04.260Z,68.91
2022-10-11T22:21:32.253Z,68.93
2022-10-11T22:24:00.329Z,68.81
2022-10-11T22:26:30.983Z,69.00
2022-10-11T22:29:00.715Z,69.15
2022-10-11T22:31:29.925Z,69.32
2022-10-11T22:34:00.317Z,69.13
2022-10-11T22:36:33.828Z,69.32
2022-10-11T22:39:07.874Z,69.23
2022-10-11T22:41:36.588Z,69.27
2022-10-11T22:44:05.755Z,69.13
2022-10-11T22:46:34.060Z,69.40
2022-10-11T22:49:02.129Z,68.94
2022-10-11T22:51:30.208Z,69.30
2022-10-11T22:53:58.374Z,69.62
2022-10-11T22:56:26.344Z,69.40
2022-10-11T22:58:54.415Z,69.24
2022-10-11T23:01:22.494Z,69.33
2022-10-11T23:03:50.983Z,69.19
2022-10-11T23:06:19.351Z,69.12
2022-10-11T23:08:47.314Z,69.07
2022-10-11T23:11:15.600Z,68.68
2022-10-11T23:13:43.866Z,68.77
2022-10-11T23:16:13.169Z,68.79
2022-10-11T23:18:41.936Z,68.97
2022-10-11T23:21:10.232Z,69.03
2022-10-11T23:23:40.010Z,68.94
2022-10-11T23:26:13.235Z,68.95
2022-10-11T23:28:43.125Z,69.24
2022-10-11T23:31:16.857Z,69.00
2022-10-11T23:33:46.667Z,68.82
2022-10-11T23:36:23.542Z,69.04
2022-10-11T23:39:00.626Z,68.73
2022-10-11T23:41:30.234Z,68.88
2022-10-11T23:43:59.123Z,68.81
2022-10-11T23:46:27.300Z,68.61
2022-10-11T23:48:55.368Z,69.18
2022-10-11T23:51:23.336Z,69.00
2022-10-11T23:53:51.511Z,68.83
2022-10-11T23:56:19.892Z,68.86
2022-10-11T23:58:47.961Z,69.12
